createdAt,value
2023-05-30T00:00:19.907Z,3.45
2023-05-30T00:02:46.853Z,3.05
2023-05-30T00:05:14.433Z,2.97
2023-05-30T00:07:41.182Z,2.65
2023-05-30T00:10:08.260Z,2.88
2023-05-30T00:12:36.488Z,2.30
2023-05-30T00:15:06.209Z,3.10
2023-05-30T00:17:33.983Z,2.55
2023-05-30T00:20:00.933Z,2.90
2023-05-30T00:22:27.718Z,3.45
2023-05-30T00:24:54.514Z,3.17
2023-05-30T00:27:21.308Z,2.95
2023-05-30T00:29:48.036Z,3.13
2023-05-30T00:32:14.823Z,3.08
2023-05-30T00:34:41.695Z,2.33
2023-05-30T00:37:10.205Z,4.90
2023-05-30T00:39:37.113Z,2.88
2023-05-30T00:42:05.278Z,2.72
2023-05-30T00:44:32.098Z,2.92
2023-05-30T00:46:59.556Z,3.40
2023-05-30T00:49:28.085Z,3.50
2023-05-30T00:51:55.567Z,3.08
2023-05-30T00:54:23.653Z,3.08
2023-05-30T00:56:51.875Z,3.10
2023-05-30T00:59:19.037Z,4.85
2023-05-30T01:01:46.657Z,4.57
2023-05-30T01:04:13.636Z,3.90
2023-05-30T01:06:41.016Z,2.92
2023-05-30T01:09:08.077Z,3.03
2023-05-30T01:11:48.540Z,2.75
2023-05-30T01:14:25.967Z,2.97
2023-05-30T01:17:02.074Z,3.17
2023-05-30T01:19:48.321Z,2.92
2023-05-30T01:22:21.679Z,2.97
2023-05-30T01:25:02.849Z,3.20
2023-05-30T01:27:44.818Z,3.72
2023-05-30T01:30:12.039Z,3.10
2023-05-30T01:32:39.187Z,3.20
2023-05-30T01:35:06.020Z,3.20
2023-05-30T01:37:32.798Z,3.50
2023-05-30T01:39:59.560Z,3.47
2023-05-30T01:42:32.349Z,3.38
2023-05-30T01:45:17.193Z,3.55
2023-05-30T01:48:13.201Z,4.00
2023-05-30T01:50:49.272Z,3.20
2023-05-30T01:53:23.540Z,4.03
2023-05-30T01:55:54.722Z,3.40
2023-05-30T01:58:24.287Z,4.28
2023-05-30T02:00:54.212Z,4.03
2023-05-30T02:03:23.692Z,3.67
2023-05-30T02:05:50.799Z,3.67
2023-05-30T02:08:17.602Z,3.42
2023-05-30T02:10:44.402Z,3.50
2023-05-30T02:13:11.189Z,3.10
2023-05-30T02:15:37.918Z,4.00
2023-05-30T02:18:07.071Z,3.50
2023-05-30T02:20:34.019Z,4.03
2023-05-30T02:23:00.930Z,3.00
2023-05-30T02:25:27.716Z,3.42
2023-05-30T02:27:54.479Z,3.70
2023-05-30T02:30:21.398Z,4.07
2023-05-30T02:32:48.190Z,2.75
2023-05-30T02:35:14.935Z,5.18
2023-05-30T02:37:41.658Z,3.90
2023-05-30T02:40:12.201Z,3.03
2023-05-30T02:42:39.020Z,3.58
2023-05-30T02:45:06.234Z,4.18
2023-05-30T02:47:33.246Z,3.40
2023-05-30T02:49:59.999Z,3.45
2023-05-30T02:52:26.781Z,3.90
2023-05-30T02:54:53.592Z,3.92
2023-05-30T02:57:23.472Z,3.50
2023-05-30T02:59:50.236Z,3.45
2023-05-30T03:02:16.990Z,4.28
2023-05-30T03:04:47.435Z,3.53
2023-05-30T03:07:18.744Z,3.70
2023-05-30T03:09:47.021Z,3.53
2023-05-30T03:12:14.004Z,4.30
2023-05-30T03:14:41.040Z,4.40
2023-05-30T03:17:07.881Z,4.88
2023-05-30T03:19:34.698Z,2.95
2023-05-30T03:22:01.505Z,3.50
2023-05-30T03:24:30.427Z,3.22
2023-05-30T03:26:57.196Z,3.35
2023-05-30T03:29:23.969Z,3.15
2023-05-30T03:31:50.995Z,3.22
2023-05-30T03:34:17.876Z,4.32
2023-05-30T03:36:44.606Z,3.70
2023-05-30T03:39:11.497Z,3.00
2023-05-30T03:41:38.252Z,2.70
2023-05-30T03:44:05.213Z,3.42
2023-05-30T03:46:33.230Z,3.20
2023-05-30T03:49:00.161Z,4.28
2023-05-30T03:51:27.788Z,3.13
2023-05-30T03:53:54.587Z,3.20
2023-05-30T03:56:21.818Z,3.05
2023-05-30T03:58:48.616Z,2.65
2023-05-30T04:01:15.667Z,3.38
2023-05-30T04:03:44.252Z,3.30
2023-05-30T04:06:11.784Z,2.45
2023-05-30T04:08:39.085Z,3.65
2023-05-30T04:11:05.948Z,2.85
2023-05-30T04:13:32.704Z,3.03
2023-05-30T04:16:01.696Z,3.58
2023-05-30T04:18:28.562Z,3.05
2023-05-30T04:20:55.567Z,3.88
2023-05-30T04:23:23.751Z,2.70
2023-05-30T04:25:50.899Z,3.05
2023-05-30T04:28:21.102Z,3.05
2023-05-30T04:30:51.087Z,2.45
2023-05-30T04:33:18.255Z,2.90
2023-05-30T04:35:45.879Z,2.83
2023-05-30T04:38:21.157Z,3.65
2023-05-30T04:40:54.184Z,2.80
2023-05-30T04:43:21.263Z,3.22
2023-05-30T04:45:59.855Z,3.03
2023-05-30T04:48:36.228Z,2.40
2023-05-30T04:51:03.956Z,3.00
2023-05-30T04:53:30.923Z,2.95
2023-05-30T04:55:58.063Z,3.30
2023-05-30T04:58:24.782Z,3.10
2023-05-30T05:00:51.536Z,2.70
2023-05-30T05:03:18.450Z,3.00
2023-05-30T05:05:45.235Z,3.47
2023-05-30T05:08:12.016Z,3.50
2023-05-30T05:10:39.221Z,3.22
2023-05-30T05:13:05.962Z,3.08
2023-05-30T05:15:32.799Z,2.47
2023-05-30T05:17:59.952Z,3.88
2023-05-30T05:20:28.188Z,2.75
2023-05-30T05:22:56.464Z,2.83
2023-05-30T05:25:23.683Z,2.72
2023-05-30T05:27:50.670Z,2.60
2023-05-30T05:30:17.443Z,2.60
2023-05-30T05:32:44.302Z,3.55
2023-05-30T05:35:11.232Z,3.83
2023-05-30T05:37:38.172Z,4.55
2023-05-30T05:40:06.813Z,2.60
2023-05-30T05:42:34.642Z,3.00
2023-05-30T05:45:02.425Z,2.50
2023-05-30T05:47:29.253Z,2.47
2023-05-30T05:49:56.036Z,2.45
2023-05-30T05:52:22.882Z,2.70
2023-05-30T05:54:49.641Z,2.38
2023-05-30T05:57:16.564Z,2.58
2023-05-30T05:59:43.567Z,3.10
2023-05-30T06:02:10.400Z,2.85
2023-05-30T06:04:37.857Z,2.92
2023-05-30T06:07:05.215Z,3.38
2023-05-30T06:09:32.922Z,2.50
2023-05-30T06:11:59.698Z,3.13
2023-05-30T06:14:26.700Z,2.72
2023-05-30T06:16:53.769Z,2.75
2023-05-30T06:19:21.076Z,2.67
2023-05-30T06:21:48.083Z,2.10
2023-05-30T06:24:14.831Z,3.03
2023-05-30T06:26:41.646Z,2.85
2023-05-30T06:29:08.386Z,3.03
2023-05-30T06:31:35.172Z,2.80
2023-05-30T06:34:01.930Z,3.00
2023-05-30T06:36:28.650Z,3.58
2023-05-30T06:38:55.431Z,3.10
2023-05-30T06:41:23.716Z,2.60
2023-05-30T06:43:50.584Z,3.15
2023-05-30T06:46:17.728Z,2.33
2023-05-30T06:48:44.483Z,2.85
2023-05-30T06:51:11.698Z,2.55
2023-05-30T06:53:38.446Z,2.33
2023-05-30T06:56:05.418Z,3.13
2023-05-30T06:58:32.184Z,2.22
2023-05-30T07:00:59.176Z,3.00
2023-05-30T07:03:26.488Z,2.33
2023-05-30T07:05:54.111Z,3.33
2023-05-30T07:08:20.954Z,2.72
2023-05-30T07:10:47.703Z,2.67
2023-05-30T07:13:14.441Z,2.65
2023-05-30T07:15:41.195Z,2.47
2023-05-30T07:18:07.922Z,2.53
2023-05-30T07:20:34.742Z,3.53
2023-05-30T07:23:01.618Z,2.55
2023-05-30T07:25:28.353Z,2.72
2023-05-30T07:27:55.152Z,3.13
2023-05-30T07:30:22.558Z,2.60
2023-05-30T07:32:50.953Z,2.55
2023-05-30T07:35:17.854Z,2.38
2023-05-30T07:37:44.592Z,3.55
2023-05-30T07:40:11.487Z,2.67
2023-05-30T07:42:38.916Z,3.08
2023-05-30T07:45:06.558Z,2.13
2023-05-30T07:47:33.395Z,2.58
2023-05-30T07:50:00.256Z,2.30
2023-05-30T07:52:27.136Z,2.72
2023-05-30T07:54:54.011Z,2.30
2023-05-30T07:57:20.837Z,3.33
2023-05-30T07:59:49.814Z,2.05
2023-05-30T08:02:17.179Z,2.22
2023-05-30T08:04:44.255Z,2.88
2023-05-30T08:07:11.142Z,2.88
2023-05-30T08:09:38.011Z,2.00
2023-05-30T08:12:06.396Z,1.73
2023-05-30T08:14:33.780Z,2.00
2023-05-30T08:17:01.136Z,2.33
2023-05-30T08:19:28.296Z,2.22
2023-05-30T08:21:55.255Z,2.58
2023-05-30T08:24:22.127Z,2.60
2023-05-30T08:26:49.931Z,1.92
2023-05-30T08:29:16.863Z,2.47
2023-05-30T08:31:43.867Z,2.17
2023-05-30T08:34:10.830Z,2.08
2023-05-30T08:36:37.965Z,2.25
2023-05-30T08:41:35.512Z,1.98
2023-05-30T08:44:02.547Z,2.25
2023-05-30T08:46:30.153Z,2.03
2023-05-30T08:48:57.467Z,2.28
2023-05-30T08:51:25.692Z,1.70
2023-05-30T08:53:57.440Z,2.50
2023-05-30T08:56:30.513Z,1.77
2023-05-30T08:59:01.371Z,2.78
2023-05-30T09:01:29.712Z,3.00
2023-05-30T09:03:57.500Z,2.42
2023-05-30T09:06:27.027Z,2.13
2023-05-30T09:08:54.482Z,2.63
2023-05-30T09:11:24.064Z,1.88
2023-05-30T09:13:51.065Z,1.95
2023-05-30T09:16:17.892Z,2.28
2023-05-30T09:18:44.699Z,2.35
2023-05-30T09:21:12.723Z,2.10
2023-05-30T09:23:42.347Z,2.85
2023-05-30T09:26:12.774Z,3.58
2023-05-30T09:28:39.496Z,2.10
2023-05-30T09:31:08.072Z,1.52
2023-05-30T09:33:45.909Z,2.00
2023-05-30T09:36:20.097Z,1.92
2023-05-30T09:39:06.546Z,2.25
2023-05-30T09:41:34.146Z,3.53
2023-05-30T09:44:05.682Z,2.72
2023-05-30T09:46:32.659Z,2.47
2023-05-30T09:49:00.081Z,1.52
2023-05-30T09:51:27.499Z,2.60
2023-05-30T09:54:05.599Z,1.90
2023-05-30T09:56:40.331Z,2.72
2023-05-30T09:59:12.357Z,2.00
2023-05-30T10:01:44.151Z,2.13
2023-05-30T10:04:19.325Z,2.00
2023-05-30T10:06:47.919Z,2.83
2023-05-30T10:09:14.964Z,1.95
2023-05-30T10:11:45.439Z,1.98
2023-05-30T10:14:13.303Z,2.13
2023-05-30T10:16:47.352Z,4.05
2023-05-30T10:19:17.989Z,2.70
2023-05-30T10:21:46.230Z,2.15
2023-05-30T10:24:16.768Z,2.03
2023-05-30T10:26:50.216Z,2.75
2023-05-30T10:29:20.828Z,4.15
2023-05-30T10:31:48.979Z,2.38
2023-05-30T10:34:18.906Z,2.22
2023-05-30T10:36:46.300Z,2.72
2023-05-30T10:39:57.570Z,2.53
2023-05-30T10:42:38.291Z,2.28
2023-05-30T10:45:34.181Z,2.67
2023-05-30T10:48:21.130Z,2.47
2023-05-30T10:50:50.722Z,2.17
2023-05-30T10:53:21.220Z,2.00
2023-05-30T10:55:50.297Z,2.38
2023-05-30T10:58:43.303Z,2.35
2023-05-30T11:01:30.774Z,2.67
2023-05-30T11:06:43.909Z,2.33
2023-05-30T11:09:18.892Z,2.47
2023-05-30T11:11:47.968Z,2.63
2023-05-30T11:14:16.332Z,2.50
2023-05-30T11:16:56.087Z,2.03
2023-05-30T11:19:29.108Z,2.83
2023-05-30T11:22:01.253Z,3.17
2023-05-30T11:24:30.646Z,2.08
2023-05-30T11:27:06.862Z,3.22
2023-05-30T11:29:58.283Z,2.83
2023-05-30T11:32:30.008Z,3.20
2023-05-30T11:35:04.550Z,3.03
2023-05-30T11:37:34.401Z,2.70
2023-05-30T11:40:01.696Z,2.78
2023-05-30T11:42:29.830Z,2.65
2023-05-30T11:44:57.271Z,2.78
2023-05-30T11:47:43.706Z,2.33
2023-05-30T11:50:11.044Z,2.28
2023-05-30T11:52:39.421Z,3.00
2023-05-30T11:55:06.522Z,3.78
2023-05-30T11:57:34.175Z,3.15
2023-05-30T12:00:01.325Z,2.85
2023-05-30T12:02:31.405Z,2.63
2023-05-30T12:05:03.092Z,2.47
2023-05-30T12:07:30.693Z,2.92
2023-05-30T12:09:57.486Z,2.90
2023-05-30T12:12:24.263Z,3.20
2023-05-30T12:14:54.322Z,3.03
2023-05-30T12:17:22.742Z,2.33
2023-05-30T12:19:57.932Z,2.80
2023-05-30T12:22:25.741Z,2.97
2023-05-30T12:24:53.297Z,2.88
2023-05-30T12:27:23.400Z,2.58
2023-05-30T12:29:50.408Z,3.08
2023-05-30T12:32:24.894Z,3.35
2023-05-30T12:34:54.298Z,2.78
2023-05-30T12:37:21.300Z,3.67
2023-05-30T12:39:57.256Z,3.70
2023-05-30T12:42:34.842Z,3.22
2023-05-30T12:45:06.889Z,3.50
2023-05-30T12:47:36.354Z,2.90
2023-05-30T12:50:03.581Z,3.13
2023-05-30T12:52:30.957Z,3.40
2023-05-30T12:54:58.205Z,3.72
2023-05-30T12:57:27.091Z,3.58
2023-05-30T12:59:55.894Z,3.00
2023-05-30T13:02:27.170Z,3.30
2023-05-30T13:04:55.370Z,3.08
2023-05-30T13:07:22.426Z,2.83
2023-05-30T13:09:49.217Z,3.17
2023-05-30T13:12:17.245Z,3.00
2023-05-30T13:14:45.846Z,3.03
2023-05-30T13:17:13.114Z,2.38
2023-05-30T13:19:40.179Z,3.40
2023-05-30T13:22:09.924Z,3.40
2023-05-30T13:24:37.701Z,3.00
2023-05-30T13:27:04.869Z,3.45
2023-05-30T13:29:31.749Z,3.90
2023-05-30T13:31:58.718Z,3.25
2023-05-30T13:34:25.628Z,3.17
2023-05-30T13:36:53.422Z,3.58
2023-05-30T13:39:20.303Z,3.20
2023-05-30T13:41:47.118Z,3.30
2023-05-30T13:44:14.068Z,3.67
2023-05-30T13:46:41.010Z,4.15
2023-05-30T13:49:08.864Z,4.00
2023-05-30T13:51:35.859Z,3.65
2023-05-30T13:54:04.371Z,4.35
2023-05-30T13:56:32.106Z,3.60
2023-05-30T13:58:59.783Z,4.90
2023-05-30T14:01:31.329Z,3.75
2023-05-30T14:03:58.727Z,4.13
2023-05-30T14:06:26.748Z,3.90
2023-05-30T14:08:53.941Z,4.25
2023-05-30T14:11:22.499Z,5.13
2023-05-30T14:13:50.202Z,4.40
2023-05-30T14:16:17.411Z,4.65
2023-05-30T14:18:47.890Z,4.38
2023-05-30T14:21:15.130Z,4.70
2023-05-30T14:23:42.183Z,3.88
2023-05-30T14:26:08.933Z,4.25
2023-05-30T14:28:36.376Z,5.13
2023-05-30T14:31:03.510Z,5.43
2023-05-30T14:33:30.494Z,4.53
2023-05-30T14:35:57.307Z,5.68
2023-05-30T14:38:24.380Z,5.63
2023-05-30T14:40:51.132Z,6.40
2023-05-30T14:43:17.836Z,5.88
2023-05-30T14:45:44.903Z,5.85
2023-05-30T14:48:13.159Z,6.53
2023-05-30T14:50:40.403Z,5.63
2023-05-30T14:53:07.500Z,6.13
2023-05-30T14:55:34.399Z,6.60
2023-05-30T14:58:01.299Z,5.88
2023-05-30T15:00:28.759Z,6.03
2023-05-30T15:02:55.855Z,6.05
2023-05-30T15:05:23.004Z,6.18
2023-05-30T15:07:50.361Z,5.78
2023-05-30T15:10:17.410Z,5.63
2023-05-30T15:12:46.277Z,5.35
2023-05-30T15:15:13.467Z,5.10
2023-05-30T15:17:40.772Z,5.32
2023-05-30T15:20:09.031Z,5.72
2023-05-30T15:22:36.725Z,5.53
2023-05-30T15:25:03.958Z,5.20
2023-05-30T15:27:30.870Z,6.00
2023-05-30T15:29:57.572Z,5.57
2023-05-30T15:32:24.472Z,5.43
2023-05-30T15:34:51.272Z,5.55
2023-05-30T15:37:18.012Z,5.45
2023-05-30T15:39:45.102Z,6.63
2023-05-30T15:42:11.858Z,6.50
2023-05-30T15:44:38.580Z,5.88
2023-05-30T15:47:06.772Z,5.57
2023-05-30T15:49:33.604Z,5.43
2023-05-30T15:52:00.424Z,5.82
2023-05-30T15:54:27.183Z,5.20
2023-05-30T15:56:54.357Z,5.47
2023-05-30T15:59:21.270Z,5.30
2023-05-30T16:01:48.363Z,4.18
2023-05-30T16:04:15.744Z,4.50
2023-05-30T16:06:42.566Z,3.80
2023-05-30T16:09:09.327Z,4.10
2023-05-30T16:11:36.105Z,4.40
2023-05-30T16:14:06.081Z,4.70
2023-05-30T16:16:33.357Z,5.03
2023-05-30T16:19:00.681Z,4.53
2023-05-30T16:21:27.515Z,3.85
2023-05-30T16:23:54.283Z,4.70
2023-05-30T16:26:22.779Z,4.05
2023-05-30T16:28:49.559Z,4.97
2023-05-30T16:31:17.681Z,4.45
2023-05-30T16:33:44.434Z,4.38
2023-05-30T16:36:12.891Z,3.63
2023-05-30T16:38:41.918Z,3.95
2023-05-30T16:41:13.216Z,4.55
2023-05-30T16:43:42.841Z,3.63
2023-05-30T16:46:10.734Z,3.50
2023-05-30T16:48:37.798Z,3.63
2023-05-30T16:51:05.015Z,3.20
2023-05-30T16:53:32.193Z,3.30
2023-05-30T16:55:59.102Z,3.83
2023-05-30T16:58:26.028Z,4.05
2023-05-30T17:00:52.943Z,4.47
2023-05-30T17:03:19.834Z,4.43
2023-05-30T17:05:46.704Z,4.32
2023-05-30T17:08:15.549Z,4.22
2023-05-30T17:10:43.238Z,4.28
2023-05-30T17:13:10.642Z,4.25
2023-05-30T17:15:37.737Z,4.50
2023-05-30T17:18:05.174Z,3.78
2023-05-30T17:20:32.354Z,2.72
2023-05-30T17:22:59.410Z,3.58
2023-05-30T17:25:29.333Z,3.10
2023-05-30T17:27:59.773Z,3.97
2023-05-30T17:30:27.641Z,3.42
2023-05-30T17:32:54.684Z,4.13
2023-05-30T17:35:21.459Z,3.92
2023-05-30T17:37:48.662Z,3.65
2023-05-30T17:40:15.680Z,4.05
2023-05-30T17:42:42.557Z,4.28
2023-05-30T17:45:14.090Z,3.95
2023-05-30T17:47:40.841Z,3.90
2023-05-30T17:50:09.074Z,3.65
2023-05-30T17:52:36.346Z,3.80
2023-05-30T17:55:03.342Z,4.05
2023-05-30T17:57:30.148Z,3.50
2023-05-30T17:59:57.084Z,4.35
2023-05-30T18:02:24.034Z,3.65
2023-05-30T18:04:51.018Z,3.85
2023-05-30T18:07:19.314Z,3.88
2023-05-30T18:09:46.068Z,3.05
2023-05-30T18:12:13.982Z,3.85
2023-05-30T18:14:40.696Z,3.40
2023-05-30T18:17:07.633Z,3.60
2023-05-30T18:19:34.400Z,4.00
2023-05-30T18:22:01.442Z,3.55
2023-05-30T18:24:28.331Z,3.05
2023-05-30T18:26:55.129Z,3.38
2023-05-30T18:29:21.917Z,4.03
2023-05-30T18:31:48.684Z,3.67
2023-05-30T18:34:15.527Z,3.30
2023-05-30T18:36:42.265Z,3.67
2023-05-30T18:39:10.366Z,4.57
2023-05-30T18:41:37.162Z,3.47
2023-05-30T18:44:05.489Z,4.00
2023-05-30T18:46:33.464Z,3.75
2023-05-30T18:49:00.342Z,3.33
2023-05-30T18:51:27.484Z,3.08
2023-05-30T18:53:55.083Z,3.70
2023-05-30T18:56:24.160Z,3.40
2023-05-30T18:58:52.875Z,3.63
2023-05-30T19:01:19.855Z,3.45
2023-05-30T19:03:46.709Z,3.97
2023-05-30T19:06:13.947Z,3.70
2023-05-30T19:08:41.075Z,3.38
2023-05-30T19:11:07.929Z,3.55
2023-05-30T19:13:34.664Z,3.35
2023-05-30T19:16:01.695Z,3.65
2023-05-30T19:18:28.746Z,3.72
2023-05-30T19:20:56.548Z,3.58
2023-05-30T19:23:23.490Z,5.90
2023-05-30T19:25:51.119Z,3.47
2023-05-30T19:28:17.989Z,3.88
2023-05-30T19:30:44.954Z,3.75
2023-05-30T19:33:13.033Z,4.07
2023-05-30T19:35:40.089Z,4.13
2023-05-30T19:38:06.870Z,3.88
2023-05-30T19:40:33.708Z,4.10
2023-05-30T19:43:00.538Z,4.47
2023-05-30T19:45:27.850Z,4.32
2023-05-30T19:47:55.142Z,3.90
2023-05-30T19:50:22.592Z,4.10
2023-05-30T19:52:49.442Z,3.80
2023-05-30T19:55:17.150Z,4.20
2023-05-30T19:57:44.333Z,4.38
2023-05-30T20:00:12.836Z,4.03
2023-05-30T20:02:41.196Z,4.65
2023-05-30T20:05:08.518Z,4.28
2023-05-30T20:07:37.039Z,4.47
2023-05-30T20:10:04.347Z,4.72
2023-05-30T20:12:31.256Z,4.07
2023-05-30T20:14:57.991Z,4.25
2023-05-30T20:17:25.092Z,4.15
2023-05-30T20:19:52.126Z,4.72
2023-05-30T20:22:19.705Z,4.47
2023-05-30T20:24:46.669Z,4.53
2023-05-30T20:27:15.219Z,4.68
2023-05-30T20:29:42.121Z,4.60
2023-05-30T20:32:09.516Z,4.15
2023-05-30T20:34:36.353Z,4.32
2023-05-30T20:37:03.097Z,3.78
2023-05-30T20:39:29.879Z,5.15
2023-05-30T20:41:56.637Z,5.30
2023-05-30T20:44:23.360Z,4.05
2023-05-30T20:46:50.335Z,5.75
2023-05-30T20:49:17.062Z,3.72
2023-05-30T20:51:43.846Z,4.43
2023-05-30T20:54:10.697Z,4.10
2023-05-30T20:56:37.402Z,4.03
2023-05-30T20:59:04.111Z,5.18
2023-05-30T21:01:31.097Z,4.47
2023-05-30T21:03:57.966Z,5.20
2023-05-30T21:06:24.749Z,4.30
2023-05-30T21:08:51.922Z,4.45
2023-05-30T21:11:18.733Z,4.40
2023-05-30T21:13:45.520Z,5.03
2023-05-30T21:16:13.026Z,4.53
2023-05-30T21:18:40.137Z,3.97
2023-05-30T21:21:06.902Z,4.13
2023-05-30T21:23:33.722Z,5.10
2023-05-30T21:26:00.494Z,4.15
2023-05-30T21:28:27.235Z,4.47
2023-05-30T21:30:53.988Z,5.07
2023-05-30T21:33:20.791Z,4.10
2023-05-30T21:35:47.526Z,5.65
2023-05-30T21:38:14.319Z,5.07
2023-05-30T21:40:43.662Z,4.80
2023-05-30T21:43:11.752Z,4.82
2023-05-30T21:45:44.541Z,4.47
2023-05-30T21:48:12.404Z,5.03
2023-05-30T21:50:39.571Z,5.72
2023-05-30T21:53:06.348Z,5.00
2023-05-30T21:55:33.122Z,4.80
2023-05-30T21:57:59.942Z,5.53
2023-05-30T22:00:29.402Z,4.93
2023-05-30T22:02:56.646Z,6.10
2023-05-30T22:05:23.444Z,6.65
2023-05-30T22:07:50.224Z,6.88
2023-05-30T22:10:17.057Z,6.32
2023-05-30T22:12:43.804Z,7.20
2023-05-30T22:15:11.318Z,7.00
2023-05-30T22:17:40.811Z,7.45
2023-05-30T22:20:09.385Z,7.28
2023-05-30T22:22:36.196Z,8.05
2023-05-30T22:25:03.794Z,7.40
2023-05-30T22:27:30.598Z,8.05
2023-05-30T22:29:57.432Z,8.02
2023-05-30T22:32:25.040Z,10.57
2023-05-30T22:34:51.764Z,8.45
2023-05-30T22:37:18.640Z,9.27
2023-05-30T22:39:45.647Z,8.77
2023-05-30T22:42:14.409Z,8.63
2023-05-30T22:44:41.815Z,7.95
2023-05-30T22:47:08.977Z,8.55
2023-05-30T22:49:35.739Z,7.05
2023-05-30T22:52:02.478Z,6.68
2023-05-30T22:54:29.228Z,6.95
2023-05-30T22:56:56.362Z,6.85
2023-05-30T22:59:23.338Z,6.22
2023-05-30T23:01:50.207Z,5.65
2023-05-30T23:04:17.139Z,5.72
2023-05-30T23:06:43.876Z,6.22
2023-05-30T23:09:10.650Z,5.50
2023-05-30T23:11:37.585Z,5.80
2023-05-30T23:14:04.374Z,5.40
2023-05-30T23:16:31.228Z,3.60
2023-05-30T23:18:58.057Z,2.08
2023-05-30T23:21:24.783Z,3.60
2023-05-30T23:23:51.583Z,3.65
2023-05-30T23:26:18.498Z,2.72
2023-05-30T23:28:45.350Z,3.15
2023-05-30T23:31:13.318Z,2.55
2023-05-30T23:33:40.161Z,1.88
2023-05-30T23:36:07.266Z,2.10
2023-05-30T23:38:34.004Z,1.95
2023-05-30T23:41:01.600Z,1.80
2023-05-30T23:43:29.238Z,1.92
2023-05-30T23:45:56.039Z,1.77
2023-05-30T23:48:22.751Z,2.00
2023-05-30T23:50:49.567Z,2.88
2023-05-30T23:53:16.312Z,2.58
2023-05-30T23:55:43.115Z,2.50
2023-05-30T23:58:09.838Z,2.63
